Scholls, Oregon
Current Conditions -  °F | °C
As of 7:53 PM on Friday 19 Dec 2014 (Local Time) from KHIO Reporting Station
Overcast Overcast  
Wind Chill: 43°   Ceiling: 4700
Heat Index: 48°   Visibility: 10mi
Dew Point: 45°   Wind: 10mph
Humidity: 89%   Direction: 140°SE
Pressure: 29.96"   Gusts: NA
Location:  45.4461°N, 122.983°W
Report Text: KHIO 200353Z 14009KT 10SM FEW021 BKN047 OVC110 09/07 A2996 RMK AO2 RAB28E49 SLP146 P0000 T00890072
Loading
Personal Weather Stations






























Interactive Weather Map New forecast layout! Learn more

10-Day Weather Forecast

Advertisements
Track Severe Weather on mobile